createdAt,value
2018-07-16T00:00:37.654Z,3.97
2018-07-16T00:03:05.734Z,3.90
2018-07-16T00:05:33.831Z,3.43
2018-07-16T00:08:01.966Z,3.70
2018-07-16T00:10:30.105Z,3.90
2018-07-16T00:12:58.260Z,3.87
2018-07-16T00:15:26.409Z,3.83
2018-07-16T00:17:54.499Z,4.40
2018-07-16T00:20:22.690Z,4.37
2018-07-16T00:22:50.855Z,4.40
2018-07-16T00:25:18.966Z,4.60
2018-07-16T00:27:47.078Z,5.00
2018-07-16T00:30:15.170Z,4.87
2018-07-16T00:32:43.338Z,5.57
2018-07-16T00:35:11.434Z,5.37
2018-07-16T00:37:39.534Z,4.80
2018-07-16T00:40:07.634Z,4.73
2018-07-16T00:42:35.724Z,5.07
2018-07-16T00:45:03.816Z,5.10
2018-07-16T00:47:31.926Z,5.70
2018-07-16T00:50:00.027Z,5.90
2018-07-16T00:52:28.113Z,5.83
2018-07-16T00:54:56.203Z,5.67
2018-07-16T00:57:24.310Z,5.20
2018-07-16T00:59:52.409Z,4.90
2018-07-16T01:02:20.502Z,5.03
2018-07-16T01:04:48.594Z,4.80
2018-07-16T01:07:16.852Z,5.20
2018-07-16T01:09:44.931Z,4.30
2018-07-16T01:12:13.027Z,4.40
2018-07-16T01:14:41.159Z,4.23
2018-07-16T01:17:09.293Z,4.30
2018-07-16T01:19:37.439Z,4.20
2018-07-16T01:22:05.623Z,4.33
2018-07-16T01:24:33.747Z,3.87
2018-07-16T01:27:01.852Z,4.23
2018-07-16T01:29:29.979Z,4.10
2018-07-16T01:31:58.084Z,4.57
2018-07-16T01:34:26.226Z,4.73
2018-07-16T01:36:54.350Z,4.93
2018-07-16T01:39:22.502Z,5.43
2018-07-16T01:41:50.674Z,5.50
2018-07-16T01:44:18.829Z,5.93
2018-07-16T01:46:46.937Z,5.90
2018-07-16T01:49:15.054Z,6.00
2018-07-16T01:51:43.193Z,6.13
2018-07-16T01:54:11.320Z,5.53
2018-07-16T01:56:39.458Z,5.20
2018-07-16T01:59:07.599Z,5.57
2018-07-16T02:01:35.727Z,5.67
2018-07-16T02:04:03.854Z,6.17
2018-07-16T02:06:31.984Z,5.20
2018-07-16T02:09:00.102Z,6.27
2018-07-16T02:11:28.218Z,5.90
2018-07-16T02:13:56.340Z,5.67
2018-07-16T02:16:24.465Z,5.70
2018-07-16T02:18:52.589Z,5.43
2018-07-16T02:21:20.690Z,5.70
2018-07-16T02:23:48.819Z,6.27
2018-07-16T02:26:16.922Z,6.40
2018-07-16T02:28:45.067Z,6.77
2018-07-16T02:31:13.176Z,6.50
2018-07-16T02:33:41.286Z,7.20
2018-07-16T02:36:09.407Z,6.67
2018-07-16T02:38:37.571Z,6.13
2018-07-16T02:41:05.655Z,6.77
2018-07-16T02:43:33.794Z,6.57
2018-07-16T02:46:01.906Z,6.60
2018-07-16T02:48:30.041Z,6.30
2018-07-16T02:50:58.146Z,6.53
2018-07-16T02:53:26.291Z,6.83
2018-07-16T02:55:54.392Z,7.27
2018-07-16T02:58:22.533Z,7.50
2018-07-16T03:00:50.643Z,7.77
2018-07-16T03:03:18.758Z,7.67
2018-07-16T03:05:46.874Z,7.30
2018-07-16T03:08:15.006Z,7.23
2018-07-16T03:10:43.130Z,7.80
2018-07-16T03:13:11.251Z,7.23
2018-07-16T03:15:39.370Z,7.40
2018-07-16T03:18:07.627Z,8.07
2018-07-16T03:20:35.592Z,7.60
2018-07-16T03:23:03.693Z,7.53
2018-07-16T03:25:31.854Z,7.40
2018-07-16T03:27:59.989Z,7.30
2018-07-16T03:30:28.116Z,6.97
2018-07-16T03:32:56.238Z,6.27
2018-07-16T03:35:24.499Z,6.20
2018-07-16T03:37:52.665Z,6.30
2018-07-16T03:40:20.798Z,6.57
2018-07-16T03:42:48.910Z,7.20
2018-07-16T03:45:16.798Z,7.47
2018-07-16T03:47:44.910Z,6.83
2018-07-16T03:50:13.017Z,7.07
2018-07-16T03:52:41.194Z,7.27
2018-07-16T03:55:09.318Z,6.90
2018-07-16T03:57:37.518Z,6.50
2018-07-16T04:00:05.667Z,6.47
2018-07-16T04:02:33.766Z,5.50
2018-07-16T04:05:03.518Z,5.80
2018-07-16T04:07:31.650Z,5.87
2018-07-16T04:09:59.789Z,6.17
2018-07-16T04:12:27.893Z,6.13
2018-07-16T04:14:56.024Z,6.03
2018-07-16T04:17:24.130Z,6.03
2018-07-16T04:19:52.229Z,6.10
2018-07-16T04:22:20.347Z,6.40
2018-07-16T04:24:48.512Z,6.70
2018-07-16T04:27:16.626Z,6.17
2018-07-16T04:29:44.766Z,5.93
2018-07-16T04:32:12.865Z,6.37
2018-07-16T04:34:40.998Z,6.00
2018-07-16T04:37:09.106Z,6.37
2018-07-16T04:39:37.218Z,6.30
2018-07-16T04:42:05.363Z,6.90
2018-07-16T04:44:33.465Z,7.10
2018-07-16T04:47:01.357Z,8.57
2018-07-16T04:49:29.294Z,6.77
2018-07-16T04:51:57.478Z,6.80
2018-07-16T04:54:25.594Z,6.87
2018-07-16T04:56:53.761Z,6.30
2018-07-16T04:59:21.858Z,6.10
2018-07-16T05:01:49.963Z,7.07
2018-07-16T05:04:18.087Z,6.20
2018-07-16T05:06:46.216Z,6.10
2018-07-16T05:09:14.352Z,6.30
2018-07-16T05:11:42.466Z,6.70
2018-07-16T05:14:10.570Z,6.90
2018-07-16T05:16:38.687Z,6.70
2018-07-16T05:19:06.930Z,7.20
2018-07-16T05:21:35.106Z,7.00
2018-07-16T05:24:03.234Z,7.27
2018-07-16T05:26:31.353Z,7.20
2018-07-16T05:28:59.454Z,8.07
2018-07-16T05:31:27.689Z,7.60
2018-07-16T05:33:55.763Z,7.77
2018-07-16T05:36:24.099Z,7.20
2018-07-16T05:38:52.223Z,8.07
2018-07-16T05:41:20.330Z,8.07
2018-07-16T05:43:48.518Z,7.30
2018-07-16T05:46:16.675Z,7.77
2018-07-16T05:48:44.862Z,7.80
2018-07-16T05:51:12.973Z,8.73
2018-07-16T05:53:41.089Z,9.33
2018-07-16T05:56:09.238Z,10.63
2018-07-16T05:58:37.497Z,8.97
2018-07-16T06:01:05.601Z,9.27
2018-07-16T06:03:33.753Z,8.13
2018-07-16T06:06:01.978Z,5.93
2018-07-16T06:08:30.107Z,5.97
2018-07-16T06:10:58.241Z,6.23
2018-07-16T06:13:26.360Z,9.43
2018-07-16T06:15:54.499Z,6.63
2018-07-16T06:18:22.620Z,6.80
2018-07-16T06:20:50.755Z,6.00
2018-07-16T06:23:18.849Z,5.70
2018-07-16T06:25:46.967Z,5.73
2018-07-16T06:28:15.067Z,6.10
2018-07-16T06:30:43.186Z,7.37
2018-07-16T06:33:11.341Z,6.20
2018-07-16T06:35:39.433Z,6.00
2018-07-16T06:38:07.554Z,6.30
2018-07-16T06:40:35.824Z,6.00
2018-07-16T06:43:03.809Z,7.10
2018-07-16T06:45:31.919Z,6.70
2018-07-16T06:48:00.158Z,6.30
2018-07-16T06:50:28.247Z,6.50
2018-07-16T06:52:56.367Z,6.33
2018-07-16T06:55:24.489Z,6.30
2018-07-16T06:57:52.651Z,6.47
2018-07-16T07:00:20.766Z,7.57
2018-07-16T07:02:48.922Z,6.50
2018-07-16T07:05:17.084Z,6.83
2018-07-16T07:07:45.207Z,6.93
2018-07-16T07:10:13.327Z,6.70
2018-07-16T07:12:41.470Z,6.83
2018-07-16T07:15:09.665Z,7.17
2018-07-16T07:17:37.986Z,6.13
2018-07-16T07:20:06.406Z,7.07
2018-07-16T07:22:34.521Z,7.00
2018-07-16T07:25:02.638Z,6.30
2018-07-16T07:27:30.758Z,6.40
2018-07-16T07:29:58.861Z,6.60
2018-07-16T07:32:26.996Z,6.40
2018-07-16T07:34:55.127Z,5.87
2018-07-16T07:37:23.224Z,6.07
2018-07-16T07:39:51.314Z,6.50
2018-07-16T07:42:19.459Z,6.30
2018-07-16T07:44:47.546Z,6.30
2018-07-16T07:47:15.658Z,6.13
2018-07-16T07:49:43.787Z,6.23
2018-07-16T07:52:11.886Z,5.63
2018-07-16T07:54:40.155Z,6.00
2018-07-16T07:57:08.149Z,5.80
2018-07-16T07:59:36.261Z,6.70
2018-07-16T08:02:04.373Z,6.47
2018-07-16T08:04:32.483Z,6.40
2018-07-16T08:07:06.037Z,6.03
2018-07-16T08:09:34.143Z,6.00
2018-07-16T08:12:02.350Z,5.97
2018-07-16T08:14:30.460Z,5.90
2018-07-16T08:16:58.570Z,5.67
2018-07-16T08:19:26.815Z,7.37
2018-07-16T08:21:55.039Z,5.83
2018-07-16T08:24:23.164Z,6.27
2018-07-16T08:26:51.266Z,5.53
2018-07-16T08:29:19.452Z,5.47
2018-07-16T08:31:47.491Z,5.60
2018-07-16T08:34:15.622Z,4.77
2018-07-16T08:36:43.763Z,5.40
2018-07-16T08:39:12.001Z,4.83
2018-07-16T08:41:40.073Z,5.97
2018-07-16T08:44:08.229Z,4.63
2018-07-16T08:46:36.361Z,4.83
2018-07-16T08:49:04.528Z,4.17
2018-07-16T08:51:32.683Z,5.00
2018-07-16T08:54:00.967Z,4.73
2018-07-16T08:56:29.095Z,4.67
2018-07-16T08:58:57.237Z,4.20
2018-07-16T09:01:25.374Z,5.20
2018-07-16T09:03:53.506Z,4.20
2018-07-16T09:06:21.619Z,4.60
2018-07-16T09:08:49.737Z,4.30
2018-07-16T09:11:17.903Z,4.10
2018-07-16T09:13:46.001Z,4.07
2018-07-16T09:16:14.205Z,4.27
2018-07-16T09:18:42.324Z,4.30
2018-07-16T09:21:10.428Z,3.80
2018-07-16T09:23:38.578Z,4.23
2018-07-16T09:26:06.682Z,4.23
2018-07-16T09:28:34.805Z,4.30
2018-07-16T09:31:02.925Z,4.10
2018-07-16T09:33:31.045Z,4.43
2018-07-16T09:35:59.170Z,4.10
2018-07-16T09:38:27.281Z,4.37
2018-07-16T09:40:55.418Z,4.30
2018-07-16T09:43:23.517Z,3.80
2018-07-16T09:45:51.637Z,3.70
2018-07-16T09:48:19.749Z,4.20
2018-07-16T09:50:47.859Z,3.90
2018-07-16T09:53:15.976Z,4.10
2018-07-16T09:55:44.095Z,3.67
2018-07-16T09:58:12.206Z,3.57
2018-07-16T10:00:45.727Z,3.50
2018-07-16T10:03:13.931Z,3.30
2018-07-16T10:05:42.071Z,3.80
2018-07-16T10:08:10.178Z,3.50
2018-07-16T10:10:38.303Z,3.60
2018-07-16T10:13:06.829Z,3.73
2018-07-16T10:15:34.939Z,3.73
2018-07-16T10:18:04.098Z,3.57
2018-07-16T10:20:32.251Z,3.60
2018-07-16T10:23:00.371Z,3.67
2018-07-16T10:25:28.493Z,4.67
2018-07-16T10:27:56.717Z,4.70
2018-07-16T10:30:24.894Z,4.70
2018-07-16T10:32:53.050Z,4.90
2018-07-16T10:35:21.170Z,5.20
2018-07-16T10:37:49.474Z,4.20
2018-07-16T10:40:17.587Z,5.10
2018-07-16T10:42:45.730Z,4.77
2018-07-16T10:45:13.914Z,4.50
2018-07-16T10:47:42.026Z,4.20
2018-07-16T10:50:10.174Z,3.90
2018-07-16T10:52:38.322Z,4.17
2018-07-16T10:55:06.475Z,4.20
2018-07-16T10:57:34.587Z,4.37
2018-07-16T11:00:02.763Z,4.40
2018-07-16T11:02:30.913Z,4.77
2018-07-16T11:04:59.053Z,3.87
2018-07-16T11:07:27.113Z,4.20
2018-07-16T11:09:55.338Z,4.67
2018-07-16T11:12:23.438Z,4.50
2018-07-16T11:14:51.584Z,4.50
2018-07-16T11:17:19.674Z,4.23
2018-07-16T11:19:47.884Z,4.23
2018-07-16T11:22:15.999Z,4.07
2018-07-16T11:24:44.121Z,4.43
2018-07-16T11:27:12.271Z,4.43
2018-07-16T11:29:41.558Z,3.83
2018-07-16T11:32:09.721Z,3.90
2018-07-16T11:34:37.855Z,3.40
2018-07-16T11:37:06.253Z,3.50
2018-07-16T11:39:34.373Z,3.97
2018-07-16T11:42:02.481Z,4.27
2018-07-16T11:44:30.618Z,4.47
2018-07-16T11:46:58.825Z,4.10
2018-07-16T11:49:27.358Z,4.03
2018-07-16T11:51:55.479Z,3.70
2018-07-16T11:54:23.608Z,3.77
2018-07-16T11:56:51.746Z,4.30
2018-07-16T11:59:20.085Z,5.03
2018-07-16T12:01:48.180Z,4.27
2018-07-16T12:04:16.297Z,4.10
2018-07-16T12:06:44.418Z,4.37
2018-07-16T12:09:12.544Z,4.00
2018-07-16T12:11:40.653Z,4.07
2018-07-16T12:14:08.794Z,3.70
2018-07-16T12:16:36.987Z,3.30
2018-07-16T12:19:05.145Z,3.50
2018-07-16T12:21:33.254Z,3.17
2018-07-16T12:24:01.366Z,3.50
2018-07-16T12:26:29.607Z,4.00
2018-07-16T12:28:58.631Z,4.20
2018-07-16T12:31:26.778Z,4.30
2018-07-16T12:33:55.241Z,4.20
2018-07-16T12:36:23.364Z,4.10
2018-07-16T12:38:51.495Z,4.33
2018-07-16T12:41:19.635Z,4.73
2018-07-16T12:43:47.837Z,4.13
2018-07-16T12:46:15.959Z,4.07
2018-07-16T12:48:44.065Z,4.17
2018-07-16T12:51:12.165Z,3.50
2018-07-16T12:53:40.282Z,3.60
2018-07-16T12:56:08.457Z,3.50
2018-07-16T12:58:36.600Z,3.40
2018-07-16T13:01:04.715Z,3.27
2018-07-16T13:03:32.822Z,3.37
2018-07-16T13:06:00.957Z,3.23
2018-07-16T13:08:29.079Z,3.13
2018-07-16T13:10:57.292Z,3.00
2018-07-16T13:13:25.449Z,2.97
2018-07-16T13:15:53.583Z,3.17
2018-07-16T13:18:21.703Z,3.37
2018-07-16T13:20:49.818Z,3.00
2018-07-16T13:23:17.925Z,3.43
2018-07-16T13:25:46.088Z,3.00
2018-07-16T13:28:13.962Z,3.13
2018-07-16T13:30:42.089Z,2.93
2018-07-16T13:33:10.369Z,2.70
2018-07-16T13:35:38.482Z,3.20
2018-07-16T13:38:06.613Z,2.70
2018-07-16T13:40:34.829Z,2.80
2018-07-16T13:43:02.954Z,2.60
2018-07-16T13:45:31.070Z,2.97
2018-07-16T13:47:59.183Z,2.90
2018-07-16T13:50:27.295Z,2.80
2018-07-16T13:52:55.414Z,3.10
2018-07-16T13:55:23.517Z,3.10
2018-07-16T13:57:51.643Z,2.53
2018-07-16T14:00:19.831Z,3.10
2018-07-16T14:02:47.918Z,2.80
2018-07-16T14:05:16.058Z,2.60
2018-07-16T14:07:44.294Z,2.40
2018-07-16T14:10:12.653Z,2.50
2018-07-16T14:12:40.783Z,2.73
2018-07-16T14:15:08.905Z,2.40
2018-07-16T14:17:37.066Z,2.47
2018-07-16T14:20:05.225Z,2.50
2018-07-16T14:22:33.346Z,2.30
2018-07-16T14:25:01.476Z,2.20
2018-07-16T14:27:29.650Z,2.63
2018-07-16T14:29:57.766Z,2.70
2018-07-16T14:32:25.898Z,2.67
2018-07-16T14:34:54.030Z,2.70
2018-07-16T14:37:22.162Z,2.83
2018-07-16T14:39:50.396Z,2.97
2018-07-16T14:42:18.394Z,2.70
2018-07-16T14:44:46.562Z,2.50
2018-07-16T14:47:14.631Z,3.10
2018-07-16T14:49:42.753Z,2.83
2018-07-16T14:52:10.895Z,2.47
2018-07-16T14:54:39.033Z,2.90
2018-07-16T14:57:07.298Z,2.40
2018-07-16T14:59:35.346Z,2.50
2018-07-16T15:02:03.479Z,2.70
2018-07-16T15:04:31.642Z,2.23
2018-07-16T15:07:00.334Z,2.50
2018-07-16T15:09:28.810Z,2.67
2018-07-16T15:11:56.913Z,2.47
2018-07-16T15:14:25.086Z,2.47
2018-07-16T15:16:53.263Z,2.37
2018-07-16T15:19:21.435Z,2.20
2018-07-16T15:21:49.584Z,2.60
2018-07-16T15:24:17.782Z,2.60
2018-07-16T15:26:45.946Z,2.57
2018-07-16T15:29:14.106Z,2.47
2018-07-16T15:31:42.300Z,2.30
2018-07-16T15:34:10.452Z,2.30
2018-07-16T15:36:38.546Z,2.40
2018-07-16T15:39:07.265Z,2.80
2018-07-16T15:41:35.381Z,2.20
2018-07-16T15:44:03.519Z,2.53
2018-07-16T15:46:31.641Z,2.80
2018-07-16T15:48:59.828Z,2.70
2018-07-16T15:51:27.954Z,3.10
2018-07-16T15:53:56.078Z,2.67
2018-07-16T15:56:24.257Z,3.13
2018-07-16T15:58:52.495Z,2.60
2018-07-16T16:01:20.711Z,2.30
2018-07-16T16:03:48.837Z,3.40
2018-07-16T16:06:16.942Z,2.60
2018-07-16T16:08:45.186Z,2.70
2018-07-16T16:11:13.285Z,2.53
2018-07-16T16:13:41.447Z,2.70
2018-07-16T16:16:09.600Z,2.80
2018-07-16T16:18:37.709Z,2.70
2018-07-16T16:21:05.850Z,2.80
2018-07-16T16:23:33.986Z,3.10
2018-07-16T16:26:02.134Z,2.80
2018-07-16T16:28:30.301Z,2.90
2018-07-16T16:30:58.429Z,3.50
2018-07-16T16:33:26.692Z,2.90
2018-07-16T16:35:54.819Z,2.90
2018-07-16T16:38:23.005Z,3.33
2018-07-16T16:40:51.197Z,3.40
2018-07-16T16:43:19.335Z,2.90
2018-07-16T16:45:47.734Z,2.90
2018-07-16T16:48:15.842Z,3.50
2018-07-16T16:50:43.974Z,3.90
2018-07-16T16:53:12.085Z,3.73
2018-07-16T16:55:40.226Z,3.40
2018-07-16T16:58:08.366Z,3.90
2018-07-16T17:00:36.571Z,3.00
2018-07-16T17:03:04.711Z,3.10
2018-07-16T17:05:32.889Z,3.23
2018-07-16T17:08:00.978Z,5.77
2018-07-16T17:10:29.132Z,5.20
2018-07-16T17:12:57.229Z,3.40
2018-07-16T17:15:25.386Z,14.93
2018-07-16T17:17:53.714Z,3.07
2018-07-16T17:20:21.857Z,2.90
2018-07-16T17:22:50.070Z,3.10
2018-07-16T17:25:18.190Z,4.97
2018-07-16T17:27:46.323Z,3.30
2018-07-16T17:30:14.470Z,2.93
2018-07-16T17:32:42.601Z,6.30
2018-07-16T17:35:10.748Z,3.33
2018-07-16T17:37:38.873Z,3.40
2018-07-16T17:40:07.039Z,3.93
2018-07-16T17:42:35.174Z,3.60
2018-07-16T17:45:03.350Z,3.50
2018-07-16T17:47:31.480Z,3.30
2018-07-16T17:49:59.622Z,3.47
2018-07-16T17:52:27.741Z,3.30
2018-07-16T17:54:55.882Z,3.27
2018-07-16T17:57:23.994Z,3.03
2018-07-16T17:59:52.219Z,3.40
2018-07-16T18:02:20.380Z,3.37
2018-07-16T18:04:48.546Z,3.53
2018-07-16T18:07:20.785Z,3.23
2018-07-16T18:09:50.186Z,4.00
2018-07-16T18:12:18.366Z,3.10
2018-07-16T18:14:47.070Z,3.60
2018-07-16T18:17:15.204Z,3.37
2018-07-16T18:19:43.333Z,3.30
2018-07-16T18:22:11.509Z,3.30
2018-07-16T18:24:39.633Z,3.70
2018-07-16T18:27:07.786Z,3.30
2018-07-16T18:29:35.978Z,3.37
2018-07-16T18:32:04.245Z,3.30
2018-07-16T18:34:32.418Z,3.60
2018-07-16T18:37:00.551Z,3.67
2018-07-16T18:39:28.687Z,4.20
2018-07-16T18:41:56.833Z,4.20
2018-07-16T18:44:24.945Z,4.50
2018-07-16T18:46:53.085Z,4.23
2018-07-16T18:49:21.323Z,4.27
2018-07-16T18:51:49.471Z,4.47
2018-07-16T18:54:17.706Z,4.17
2018-07-16T18:56:45.910Z,3.90
2018-07-16T18:59:14.089Z,4.10
2018-07-16T19:01:42.251Z,4.43
2018-07-16T19:04:10.430Z,4.43
2018-07-16T19:06:40.214Z,4.37
2018-07-16T19:09:08.495Z,4.50
2018-07-16T19:11:36.652Z,4.23
2018-07-16T19:14:04.809Z,3.83
2018-07-16T19:16:32.954Z,3.60
2018-07-16T19:19:01.087Z,3.90
2018-07-16T19:21:29.274Z,3.93
2018-07-16T19:23:57.437Z,4.10
2018-07-16T19:26:25.561Z,4.20
2018-07-16T19:28:53.687Z,4.10
2018-07-16T19:31:21.834Z,3.90
2018-07-16T19:33:50.343Z,4.03
2018-07-16T19:36:18.854Z,4.27
2018-07-16T19:38:47.041Z,4.33
2018-07-16T19:41:15.294Z,4.30
2018-07-16T19:43:43.446Z,4.20
2018-07-16T19:46:11.926Z,4.80
2018-07-16T19:48:40.282Z,4.33
2018-07-16T19:51:08.638Z,4.67
2018-07-16T19:53:36.815Z,4.90
2018-07-16T19:56:05.048Z,4.30
2018-07-16T19:58:33.518Z,4.53
2018-07-16T20:01:01.867Z,4.60
2018-07-16T20:03:30.063Z,4.90
2018-07-16T20:05:58.241Z,5.33
2018-07-16T20:08:26.427Z,5.37
2018-07-16T20:10:54.542Z,4.70
2018-07-16T20:13:22.770Z,5.60
2018-07-16T20:15:50.835Z,5.57
2018-07-16T20:18:18.995Z,5.33
2018-07-16T20:20:55.421Z,5.53
2018-07-16T20:23:23.545Z,5.40
2018-07-16T20:25:52.967Z,5.30
2018-07-16T20:28:21.099Z,4.60
2018-07-16T20:30:49.361Z,4.23
2018-07-16T20:33:17.477Z,4.43
2018-07-16T20:35:45.611Z,3.90
2018-07-16T20:38:13.833Z,4.73
2018-07-16T20:40:42.035Z,5.33
2018-07-16T20:43:10.223Z,5.17
2018-07-16T20:45:38.383Z,5.17
2018-07-16T20:48:06.817Z,5.17
2018-07-16T20:50:35.010Z,5.10
2018-07-16T20:53:03.281Z,4.93
2018-07-16T20:55:32.173Z,5.43
2018-07-16T20:58:00.317Z,5.63
2018-07-16T21:00:28.466Z,5.77
2018-07-16T21:02:56.699Z,5.37
2018-07-16T21:05:24.926Z,5.13
2018-07-16T21:07:53.191Z,5.70
2018-07-16T21:10:21.302Z,5.60
2018-07-16T21:12:49.520Z,5.20
2018-07-16T21:15:17.638Z,5.57
2018-07-16T21:17:45.870Z,5.40
2018-07-16T21:20:13.986Z,5.40
2018-07-16T21:22:42.143Z,5.07
2018-07-16T21:25:11.317Z,5.27
2018-07-16T21:27:39.495Z,5.27
2018-07-16T21:30:07.907Z,5.00
2018-07-16T21:32:36.004Z,5.30
2018-07-16T21:35:04.158Z,5.57
2018-07-16T21:37:32.383Z,5.53
2018-07-16T21:40:00.527Z,5.77
2018-07-16T21:42:28.695Z,5.70
2018-07-16T21:44:56.841Z,6.60
2018-07-16T21:47:25.012Z,6.30
2018-07-16T21:49:53.209Z,6.10
2018-07-16T21:52:21.359Z,6.27
2018-07-16T21:54:49.635Z,6.73
2018-07-16T21:57:17.854Z,6.03
2018-07-16T21:59:45.981Z,5.87
2018-07-16T22:02:14.137Z,5.63
2018-07-16T22:04:42.259Z,5.67
2018-07-16T22:07:10.393Z,6.00
2018-07-16T22:09:38.547Z,5.43
2018-07-16T22:12:06.687Z,5.33
2018-07-16T22:14:34.822Z,5.20
2018-07-16T22:17:03.020Z,5.03
2018-07-16T22:19:31.161Z,5.70
2018-07-16T22:21:59.341Z,5.70
2018-07-16T22:24:27.487Z,6.73
2018-07-16T22:26:55.672Z,6.90
2018-07-16T22:29:23.798Z,7.13
2018-07-16T22:31:52.187Z,10.23
2018-07-16T22:34:20.378Z,9.20
2018-07-16T22:36:48.526Z,8.10
2018-07-16T22:39:16.775Z,7.43
2018-07-16T22:41:44.923Z,7.50
2018-07-16T22:44:13.091Z,7.20
2018-07-16T22:46:41.246Z,7.43
2018-07-16T22:49:09.411Z,6.93
2018-07-16T22:51:37.599Z,7.30
2018-07-16T22:54:05.746Z,7.60
2018-07-16T22:56:33.906Z,6.77
2018-07-16T22:59:02.095Z,6.47
2018-07-16T23:01:30.257Z,6.80
2018-07-16T23:03:58.442Z,6.90
2018-07-16T23:06:26.645Z,8.20
2018-07-16T23:08:54.554Z,7.20
2018-07-16T23:11:22.670Z,8.53
2018-07-16T23:13:50.822Z,8.13
2018-07-16T23:16:18.958Z,7.73
2018-07-16T23:18:47.132Z,7.70
2018-07-16T23:21:15.303Z,8.00
2018-07-16T23:23:43.482Z,7.73
2018-07-16T23:26:11.614Z,7.20
2018-07-16T23:28:39.520Z,7.53
2018-07-16T23:31:07.658Z,7.43
2018-07-16T23:33:35.872Z,7.30
2018-07-16T23:36:04.046Z,7.43
2018-07-16T23:38:32.162Z,7.60
2018-07-16T23:41:00.443Z,7.10
2018-07-16T23:43:28.566Z,6.77
2018-07-16T23:45:56.726Z,6.83
2018-07-16T23:48:24.864Z,6.70
2018-07-16T23:50:53.001Z,7.00
2018-07-16T23:53:21.115Z,6.90
2018-07-16T23:55:49.342Z,6.77
2018-07-16T23:58:17.394Z,6.27
